Time;durP1;ratioP1;P1;durP2;ratioP2;P2;SDS_P1;SDS_P2;PMS_P1;PMS_P2;Temp;Humidity;BMP_temperature;BMP_pressure;BME280_temperature;BME280_humidity;BME280_pressure;Samples;Min_cycle;Max_cycle;Signal;HPM_P1;HPM_P2
2022/09/07 00:00:15;;;;;;;;;;;;;;;18.58;66.25;97838.38;5013010;28;19932;-88
2022/09/07 00:06:21;;;;;;;;;;;;;;;18.50;66.27;97841.41;5007819;28;20025;-82
2022/09/07 00:09:10;;;;;;;;;;;;;;;18.37;66.76;97831.69;5003996;28;19929;-86
2022/09/07 00:11:58;;;;;;;;;;;;;;;18.36;66.73;97833.66;5019585;28;19936;-84
2022/09/07 00:14:47;;;;;;;;;;;;;;;18.39;66.67;97838.44;5002151;28;20319;-85
2022/09/07 00:17:36;;;;;;;;;;;;;;;18.30;67.09;97840.63;5007019;28;19937;-87
2022/09/07 00:20:26;;;;;;;;;;;;;;;18.24;67.32;97840.13;5023346;28;19978;-77
2022/09/07 00:26:27;;;;;;;;;;;;;;;18.21;66.89;97838.09;5008610;28;19933;-82
2022/09/07 00:29:16;;;;;;;;;;;;;;;18.19;67.28;97848.66;5006308;28;19930;-81
2022/09/07 00:32:29;;;;;;;;;;;;;;;18.12;67.41;97843.03;5010256;28;20483;-82
2022/09/07 00:35:18;;;;;;;;;;;;;;;18.13;67.42;97849.31;5003184;28;19925;-81
2022/09/07 00:38:08;;;;;;;;;;;;;;;18.10;67.09;97839.84;5002686;28;19925;-87
2022/09/07 00:40:57;;;;;;;;;;;;;;;18.05;67.51;97849.16;5000311;28;19930;-83
2022/09/07 00:43:47;;;;;;;;;;;;;;;17.98;67.99;97843.53;4997046;28;19933;-84
2022/09/07 00:47:00;;;;;;;;;;;;;;;18.04;67.56;97847.56;5002873;28;20610;-86
2022/09/07 00:49:55;;;;;;;;;;;;;;;17.99;67.69;97849.81;5012876;28;19926;-83
2022/09/07 00:52:44;;;;;;;;;;;;;;;17.97;67.62;97857.63;5005166;28;19935;-83
2022/09/07 00:55:33;;;;;;;;;;;;;;;17.91;67.78;97857.13;5014582;28;19936;-81
2022/09/07 00:58:26;;;;;;;;;;;;;;;17.88;68.05;97854.31;5001541;28;19936;-81
2022/09/07 01:01:16;;;;;;;;;;;;;;;17.88;68.19;97860.59;5010116;28;19926;-82
2022/09/07 01:04:04;;;;;;;;;;;;;;;17.90;68.06;97863.00;5015845;28;19982;-86
2022/09/07 01:06:53;;;;;;;;;;;;;;;17.79;68.42;97860.81;5015610;28;19925;-83
2022/09/07 01:09:42;;;;;;;;;;;;;;;17.83;68.33;97854.59;5014356;28;19949;-83
2022/09/07 01:12:32;;;;;;;;;;;;;;;17.86;68.02;97845.63;5014590;28;19937;-86
2022/09/07 01:15:21;;;;;;;;;;;;;;;17.80;68.32;97847.88;4992348;28;19936;-83
2022/09/07 01:18:11;;;;;;;;;;;;;;;17.78;68.62;97845.47;5008657;28;19929;-84
2022/09/07 01:21:09;;;;;;;;;;;;;;;17.77;68.54;97832.88;5001957;28;19930;-83
2022/09/07 01:24:12;;;;;;;;;;;;;;;17.78;68.35;97841.91;5005411;28;20372;-83
2022/09/07 01:27:19;;;;;;;;;;;;;;;17.77;68.43;97846.63;5008999;28;19957;-83
2022/09/07 01:30:09;;;;;;;;;;;;;;;17.75;68.48;97840.72;5019364;28;19940;-85
2022/09/07 01:33:13;;;;;;;;;;;;;;;17.74;68.50;97839.13;5013609;28;19929;-85
2022/09/07 01:36:27;;;;;;;;;;;;;;;17.72;68.64;97840.59;5003695;28;20400;-86
2022/09/07 01:39:15;;;;;;;;;;;;;;;17.65;69.20;97841.25;4997795;28;19956;-81
2022/09/07 01:42:04;;;;;;;;;;;;;;;17.67;69.20;97835.38;5006036;28;20285;-86
2022/09/07 01:44:54;;;;;;;;;;;;;;;17.63;69.16;97840.81;5022798;28;19929;-83
2022/09/07 01:47:45;;;;;;;;;;;;;;;17.63;69.20;97837.25;4988465;28;20484;-87
2022/09/07 01:50:38;;;;;;;;;;;;;;;17.57;69.18;97833.97;5003449;28;20385;-85
2022/09/07 01:53:29;;;;;;;;;;;;;;;17.53;69.19;97830.38;4993011;28;19972;-85
2022/09/07 01:56:19;;;;;;;;;;;;;;;17.47;69.45;97837.28;4994105;28;19926;-87
2022/09/07 01:59:13;;;;;;;;;;;;;;;17.47;69.56;97829.88;5008773;28;20634;-80
2022/09/07 02:02:03;;;;;;;;;;;;;;;17.42;69.58;97832.09;5018383;28;19930;-83
2022/09/07 02:04:54;;;;;;;;;;;;;;;17.41;69.68;97825.00;5019699;28;19981;-83
2022/09/07 02:07:44;;;;;;;;;;;;;;;17.38;69.91;97817.47;5010156;28;19937;-86
2022/09/07 02:10:33;;;;;;;;;;;;;;;17.36;69.81;97815.06;5011006;28;19925;-82
2022/09/07 02:13:22;;;;;;;;;;;;;;;17.31;69.91;97817.31;5017220;28;20403;-85
2022/09/07 02:16:11;;;;;;;;;;;;;;;17.27;70.10;97822.72;5012952;28;19999;-82
2022/09/07 02:19:01;;;;;;;;;;;;;;;17.29;70.18;97823.16;4998295;28;19972;-83
2022/09/07 02:21:52;;;;;;;;;;;;;;;17.31;69.88;97831.84;5006944;28;19949;-87
2022/09/07 02:24:41;;;;;;;;;;;;;;;17.29;69.91;97828.66;5014251;28;19994;-83
2022/09/07 02:27:30;;;;;;;;;;;;;;;17.27;70.00;97831.75;4997763;28;19937;-85
2022/09/07 02:30:19;;;;;;;;;;;;;;;17.25;70.18;97828.56;5008917;28;19926;-85
2022/09/07 02:33:08;;;;;;;;;;;;;;;17.25;70.13;97836.78;5010179;28;19929;-83
2022/09/07 02:35:57;;;;;;;;;;;;;;;17.27;70.14;97837.25;5012149;28;20276;-83
2022/09/07 02:38:46;;;;;;;;;;;;;;;17.22;70.15;97834.78;5021584;28;19933;-86
2022/09/07 02:42:00;;;;;;;;;;;;;;;17.20;70.32;97828.84;5012112;28;19929;-85
2022/09/07 02:44:48;;;;;;;;;;;;;;;17.21;70.13;97835.16;5021176;28;19936;-85
2022/09/07 02:47:41;;;;;;;;;;;;;;;17.20;70.39;97837.06;5007412;28;20403;-86
2022/09/07 02:50:34;;;;;;;;;;;;;;;17.17;70.47;97840.53;5005784;28;19933;-79
2022/09/07 02:53:43;;;;;;;;;;;;;;;17.05;70.88;97840.66;5001768;28;19973;-82
2022/09/07 02:56:38;;;;;;;;;;;;;;;17.04;71.07;97844.53;5010096;28;19933;-87
2022/09/07 02:59:53;;;;;;;;;;;;;;;16.95;71.71;97841.19;4999934;28;19930;-85
2022/09/07 03:03:08;;;;;;;;;;;;;;;17.00;71.34;97841.72;5000600;28;19926;-83
2022/09/07 03:05:58;;;;;;;;;;;;;;;16.99;71.38;97836.56;5012221;28;19985;-85
2022/09/07 03:08:48;;;;;;;;;;;;;;;17.04;71.10;97839.03;5013022;28;19926;-86
2022/09/07 03:12:03;;;;;;;;;;;;;;;16.95;71.54;97832.94;5016252;28;19929;-85
2022/09/07 03:14:54;;;;;;;;;;;;;;;16.96;71.35;97826.31;5000951;28;19929;-84
2022/09/07 03:17:43;;;;;;;;;;;;;;;16.95;71.42;97828.25;5020181;28;19933;-82
2022/09/07 03:20:31;;;;;;;;;;;;;;;16.99;71.39;97825.59;5018732;28;19929;-80
2022/09/07 03:23:20;;;;;;;;;;;;;;;16.99;71.04;97829.16;5005081;28;19932;-87
2022/09/07 03:26:14;;;;;;;;;;;;;;;16.95;71.36;97824.72;5007053;28;19933;-84
2022/09/07 03:29:04;;;;;;;;;;;;;;;16.92;71.44;97822.69;5005419;28;20012;-82
2022/09/07 03:31:53;;;;;;;;;;;;;;;16.89;71.80;97817.91;5007382;28;20004;-81
2022/09/07 03:34:44;;;;;;;;;;;;;;;16.86;71.80;97829.59;4999996;28;20018;-84
2022/09/07 03:37:35;;;;;;;;;;;;;;;16.84;71.94;97829.94;5013785;28;19929;-83
2022/09/07 03:40:24;;;;;;;;;;;;;;;16.82;72.23;97826.75;5018201;28;19926;-84
2022/09/07 03:43:12;;;;;;;;;;;;;;;16.84;72.30;97832.69;5008856;28;19936;-82
2022/09/07 03:46:02;;;;;;;;;;;;;;;16.90;72.19;97844.19;4999988;28;19926;-83
2022/09/07 03:48:52;;;;;;;547.40;135.50;;;;;;;16.91;72.19;97837.56;4995648;28;20406;-83
2022/09/07 03:52:05;;;;;;;;;;;;;;;16.95;71.75;97835.69;5005003;28;20424;-86
2022/09/07 03:54:54;;;;;;;;;;;;;;;16.94;71.95;97828.63;5002132;28;19960;-83
2022/09/07 03:57:42;;;;;;;;;;;;;;;16.98;71.76;97829.47;5023925;28;19928;-78
2022/09/07 04:00:37;;;;;;;;;;;;;;;16.96;71.75;97815.34;5001644;28;20004;-86
2022/09/07 04:03:27;;;;;;;;;;;;;;;16.90;72.03;97811.25;4999618;28;19972;-85
2022/09/07 04:06:16;;;;;;;;;;;;;;;16.87;72.10;97812.75;4996555;28;19922;-82
2022/09/07 04:09:07;;;;;;;;;;;;;;;16.87;71.94;97812.75;5011820;28;19931;-83
2022/09/07 04:11:56;;;;;;;;;;;;;;;16.86;72.02;97815.88;5008043;28;20024;-84
2022/09/07 04:14:44;;;;;;;;;;;;;;;16.86;72.16;97813.91;5003527;28;19921;-87
2022/09/07 04:17:35;;;;;;;;;;;;;;;16.83;72.10;97814.63;5003911;28;19974;-86
2022/09/07 04:20:25;;;;;;;;;;;;;;;16.80;72.38;97818.06;5008480;28;19931;-83
2022/09/07 04:23:14;;;;;;;;;;;;;;;16.82;72.26;97814.97;5004989;28;19921;-84
2022/09/07 04:26:02;;;;;;;;;;;;;;;16.79;72.50;97821.97;5017943;28;20395;-82
2022/09/07 04:32:06;;;;;;;;;;;;;;;16.89;72.18;97818.72;5005711;28;19925;-85
2022/09/07 04:34:56;;;;;;;;;;;;;;;16.89;72.37;97826.94;5011015;28;19928;-85
2022/09/07 04:37:46;;;;;;;;;;;;;;;16.91;72.25;97830.13;5006954;28;19953;-84
2022/09/07 04:40:34;;;;;;;;;;;;;;;16.90;72.48;97833.22;5003704;28;19925;-83
2022/09/07 04:43:23;;;;;;;;;;;;;;;16.96;72.22;97831.78;5002698;28;19964;-85
2022/09/07 04:46:38;;;;;;;;;;;;;;;16.94;72.38;97834.91;5003436;28;19925;-84
2022/09/07 04:50:15;;;;;;;;;;;;;;;16.99;72.29;97836.56;5001301;28;19925;-86
2022/09/07 04:53:05;;;;;;;;;;;;;;;16.99;72.37;97855.78;5009306;28;19921;-81
2022/09/07 04:55:54;;;;;;;;;;;;;;;16.95;72.57;97850.22;5010209;28;20467;-84
2022/09/07 04:58:42;;;;;;;7.47;2.85;;;;;;;16.91;73.33;97851.28;4998741;28;20340;-84
2022/09/07 05:04:44;;;;;;;;;;;;;;;17.09;72.17;97852.50;5003458;28;19928;-84
2022/09/07 05:07:32;;;;;;;;;;;;;;;17.10;72.07;97854.09;5004761;28;19971;-84
2022/09/07 05:10:22;;;;;;;;;;;;;;;17.09;72.05;97847.00;5001411;28;19928;-83
2022/09/07 05:13:10;;;;;;;;;;;;;;;17.06;72.37;97864.19;5000993;28;19944;-83
2022/09/07 05:16:06;;;;;;;;;;;;;;;17.10;72.63;97870.56;5005596;28;20452;-83
2022/09/07 05:18:56;;;;;;;;;;;;;;;17.18;72.14;97866.84;4999249;28;19975;-80
2022/09/07 05:22:09;;;;;;;;;;;;;;;17.22;72.04;97867.72;5010906;28;19952;-83
2022/09/07 05:24:59;;;;;;;;;;;;;;;17.21;72.32;97866.13;5001425;28;20296;-80
2022/09/07 05:27:48;;;;;;;;;;;;;;;17.28;72.29;97871.00;5001826;28;19921;-82
2022/09/07 05:30:37;;;;;;;;;;;;;;;17.39;72.13;97871.25;5000502;28;20060;-84
2022/09/07 05:33:46;;;;;;;;;;;;;;;17.55;71.61;97869.25;4995757;28;20869;-87
2022/09/07 05:37:19;;;;;;;;;;;;;;;17.51;71.85;97869.16;4998947;28;19929;-79
2022/09/07 05:40:08;;;;;;;;;;;;;;;17.51;71.92;97862.88;5006586;28;19928;-81
2022/09/07 05:43:00;;;;;;;;;;;;;;;17.46;71.86;97860.41;5011875;28;19925;-83
2022/09/07 05:45:49;;;;;;;;;;;;;;;17.43;72.30;97861.16;4995745;28;19951;-85
2022/09/07 05:48:37;;;;;;;;;;;;;;;17.48;72.31;97869.91;4994175;28;19922;-79
2022/09/07 05:51:26;;;;;;;;;;;;;;;17.47;72.15;97862.00;4998651;28;20097;-81
2022/09/07 05:54:39;;;;;;;;;;;;;;;17.42;71.91;97854.84;5001760;28;19925;-83
2022/09/07 05:57:27;;;;;;;;;;;;;;;17.44;71.92;97851.75;5007737;28;19928;-84
2022/09/07 06:00:20;;;;;;;;;;;;;;;17.48;72.29;97858.13;4996626;28;20069;-83
2022/09/07 06:03:08;;;;;;;;;;;;;;;17.53;72.22;97866.09;5007755;28;19921;-82
2022/09/07 06:06:01;;;;;;;;;;;;;;;17.54;72.05;97864.94;5012175;28;20403;-79
2022/09/07 06:08:51;;;;;;;;;;;;;;;17.60;72.39;97866.25;4999859;28;19921;-79
2022/09/07 06:11:41;;;;;;;;;;;;;;;17.66;72.47;97870.28;5011514;28;19929;-79
2022/09/07 06:14:29;;;;;;;;;;;;;;;17.74;72.21;97866.59;5011641;28;20052;-78
2022/09/07 06:17:19;;;;;;;;;;;;;;;17.85;71.90;97866.81;5004556;28;19936;-79
2022/09/07 06:20:31;;;;;;;;;;;;;;;17.94;72.15;97863.84;5005940;28;19975;-79
2022/09/07 06:23:20;;;;;;;;;;;;;;;18.00;71.80;97857.72;5001808;28;20018;-78
2022/09/07 06:26:08;;;;;;;;;;;;;;;18.04;71.70;97857.78;5019431;28;20040;-77
2022/09/07 06:28:57;;;;;;;;;;;;;;;18.08;71.80;97858.66;5000446;28;19941;-80
2022/09/07 06:32:11;;;;;;;;;;;;;;;18.11;71.97;97863.44;4995150;28;20012;-80
2022/09/07 06:35:21;;;;;;;;;;;;;;;18.17;71.80;97862.00;4999293;28;19929;-79
2022/09/07 06:38:09;;;;;;;;;;;;;;;18.26;71.81;97864.50;5007963;28;20413;-79
2022/09/07 06:41:01;;;;;;;;;;;;;;;18.32;71.98;97871.28;5006225;28;20023;-80
2022/09/07 06:44:15;;;;;;;;;;;;;;;18.38;72.21;97869.06;5021913;28;20629;-80
2022/09/07 06:47:04;;;;;;;;;;;;;;;18.45;72.18;97864.50;5010374;28;19929;-78
2022/09/07 06:49:52;;;;;;;;;;;;;;;18.52;71.92;97872.06;5011005;28;19921;-79
2022/09/07 06:52:45;;;;;;;;;;;;;;;18.57;71.56;97869.81;4996296;28;19921;-78
2022/09/07 06:56:18;;;;;;;;;;;;;;;18.60;72.29;97865.56;4998982;28;19921;-78
2022/09/07 06:59:07;;;;;;;;;;;;;;;18.67;71.93;97873.94;5007960;28;19925;-79
2022/09/07 07:01:56;;;;;;;;;;;;;;;18.77;71.65;97865.09;4999466;28;20106;-79
2022/09/07 07:04:45;;;;;;;;;;;;;;;18.91;71.52;97858.25;5005343;28;19998;-79
2022/09/07 07:07:34;;;;;;;;;;;;;;;19.08;71.34;97861.31;5004726;28;19922;-80
2022/09/07 07:10:23;;;;;;;;;;;;;;;19.26;70.54;97869.84;5011401;28;19932;-78
2022/09/07 07:13:12;;;;;;;;;;;;;;;19.34;70.44;97857.00;5008154;28;19932;-79
2022/09/07 07:16:04;;;;;;;;;;;;;;;19.43;70.40;97859.47;5009348;28;19925;-79
2022/09/07 07:18:54;;;;;;;;;;;;;;;19.60;70.23;97858.97;5008030;28;19921;-79
2022/09/07 07:21:44;;;;;;;;;;;;;;;19.74;69.92;97848.16;5001845;28;19921;-78
2022/09/07 07:25:17;;;;;;;;;;;;;;;19.87;69.46;97845.97;5009444;28;19991;-77
2022/09/07 07:28:07;;;;;;;;;;;;;;;19.93;69.50;97849.19;4995547;28;19929;-79
2022/09/07 07:31:40;;;;;;;;;;;;;;;19.97;69.21;97852.78;5002664;28;20269;-78
2022/09/07 07:34:29;;;;;;;;;;;;;;;19.99;68.94;97854.00;5001779;28;20000;-76
2022/09/07 07:37:21;;;;;;;;;;;;;;;20.00;68.74;97854.78;5008917;28;19928;-78
2022/09/07 07:40:39;;;;;;;;;;;;;;;19.98;68.56;97862.66;5011715;28;19979;-80
2022/09/07 07:43:30;;;;;;;;;;;;;;;20.05;68.18;97868.25;5011937;28;19932;-78
2022/09/07 07:46:46;;;;;;;;;;;;;;;20.06;67.89;97864.31;5022530;28;20004;-79
2022/09/07 07:53:10;;;;;;;;;;;;;;;19.98;67.79;97881.97;5007577;28;19975;-77
2022/09/07 07:56:19;;;;;;;;;;;;;;;19.92;67.92;97883.44;4995753;28;19929;-79
2022/09/07 07:59:09;;;;;;;;;;;;;;;19.87;67.86;97887.34;5007605;28;19925;-79
2022/09/07 08:02:03;;;;;;;;;;;;;;;20.00;68.11;97882.38;5007374;28;20071;-79
2022/09/07 08:05:17;;;;;;;;;;;;;;;20.13;67.94;97895.56;5013351;28;20299;-78
2022/09/07 08:08:06;;;;;;;;;;;;;;;20.36;67.06;97886.38;5003894;28;20576;-78
2022/09/07 08:10:54;;;;;;;;;;;;;;;20.55;66.20;97883.44;5003337;28;20587;-78
2022/09/07 08:13:46;;;;;;;;;;;;;;;20.74;65.65;97892.72;4998035;28;20430;-77
2022/09/07 08:16:36;;;;;;;;;;;;;;;20.91;65.04;97887.38;5007671;28;19921;-78
2022/09/07 08:19:24;;;;;;;;;;;;;;;21.07;64.57;97883.56;5004885;28;19922;-78
2022/09/07 08:22:17;;;;;;;;;;;;;;;21.24;63.84;97871.06;5005886;28;20016;-78
2022/09/07 08:25:06;;;;;;;;;;;;;;;21.36;62.70;97879.91;5008616;28;20019;-78
2022/09/07 08:27:54;;;;;;;;;;;;;;;21.50;61.73;97892.22;5000606;28;20015;-77
2022/09/07 08:30:43;;;;;;;;;;;;;;;21.61;60.88;97909.69;5002090;28;20287;-78
2022/09/07 08:33:34;;;;;;;;;;;;;;;21.76;60.22;97914.13;5008093;28;20022;-79
2022/09/07 08:36:22;;;;;;;;;;;;;;;21.83;60.12;97919.69;5008601;28;19933;-77
2022/09/07 08:39:11;;;;;;;;;;;;;;;21.92;60.48;97928.47;5001536;28;19957;-79
2022/09/07 08:42:06;;;;;;;;;;;;;;;22.00;59.61;97929.31;5003791;28;20383;-78
2022/09/07 08:45:43;;;;;;;;;;;;;;;22.07;59.60;97923.03;5009025;28;19925;-78
2022/09/07 08:48:34;;;;;;;;;;;;;;;22.12;59.65;97928.22;5006929;28;19926;-78
2022/09/07 08:51:27;;;;;;;;;;;;;;;22.22;59.52;97924.72;4994958;28;19957;-77
2022/09/07 08:54:16;;;;;;;;;;;;;;;22.22;58.81;97931.03;5000937;28;19921;-79
2022/09/07 08:57:04;;;;;;;;;;;;;;;22.34;58.61;97926.34;5007053;28;19925;-78
2022/09/07 09:00:10;;;;;;;;;;;;;;;22.39;57.75;97926.75;5001832;28;19925;-78
2022/09/07 09:02:59;;;;;;;;;;;;;;;22.42;58.19;97925.16;5012854;28;19922;-78
2022/09/07 09:06:10;;;;;;;;;;;;;;;22.49;58.14;97925.22;5005690;28;20292;-77
2022/09/07 09:09:10;;;;;;;;;;;;;;;22.60;58.62;97920.50;5016722;28;20301;-78
2022/09/07 09:12:01;;;;;;;;;;;;;;;22.58;58.11;97916.53;5010175;28;19926;-77
2022/09/07 09:14:55;;;;;;;;;;;;;;;22.60;57.85;97916.94;5004426;28;20127;-76
2022/09/07 09:17:44;;;;;;;;;;;;;;;22.74;56.92;97916.97;5021638;28;20178;-78
2022/09/07 09:20:34;;;;;;;;;;;;;;;22.78;57.57;97917.78;5008215;28;19936;-76
2022/09/07 09:23:26;;;;;;;;;;;;;;;22.80;57.12;97909.06;5010865;28;19922;-76
2022/09/07 09:26:15;;;;;;;;;;;;;;;22.85;56.88;97901.19;5027402;28;19932;-75
2022/09/07 09:29:12;;;;;;;;;;;;;;;22.94;56.12;97903.59;5025988;28;20016;-75
2022/09/07 09:32:34;;;;;;;;;;;;;;;22.94;56.43;97898.84;5019420;28;19928;-76
2022/09/07 09:35:28;;;;;;;;;;;;;;;22.99;56.39;97892.91;5030716;28;20321;-76
2022/09/07 09:38:31;;;;;;;;;;;;;;;23.13;55.82;97899.69;5024157;28;19926;-79
2022/09/07 09:41:20;;;;;;;;;;;;;;;23.20;55.35;97897.69;5012700;28;19972;-79
2022/09/07 09:44:14;;;;;;;;;;;;;;;23.26;55.23;97898.09;5025295;28;19946;-75
2022/09/07 09:47:02;;;;;;;;;;;;;;;23.33;55.10;97900.06;5013869;28;19948;-78
2022/09/07 09:50:15;;;;;;;;;;;;;;;23.33;54.59;97895.34;5011075;28;19948;-78
2022/09/07 09:53:24;;;;;;;;;;;;;;;23.37;55.03;97890.56;5009013;28;20008;-78
2022/09/07 09:56:14;;;;;;;;;;;;;;;23.43;54.19;97886.19;4995743;28;19921;-81
2022/09/07 09:59:18;;;;;;;;;;;;;;;23.46;53.31;97890.97;5017145;28;20071;-78
2022/09/07 10:03:05;;;;;;;;;;;;;;;23.61;53.70;97880.66;5004427;28;20280;-79
2022/09/07 10:06:14;;;;;;;;;;;;;;;23.64;52.02;97890.97;5003808;28;19931;-88
2022/09/07 10:09:02;;;;;;;;;;;;;;;23.70;53.04;97883.84;5013505;28;20410;-81
2022/09/07 10:11:54;;;;;;;;;;;;;;;23.80;52.22;97887.75;5000871;28;19928;-84
2022/09/07 10:15:26;;;;;;;;;;;;;;;23.76;52.04;97882.25;4998868;28;19922;-81
2022/09/07 10:18:17;;;;;;;;;;;;;;;23.68;53.29;97871.56;5002649;28;19933;-84
2022/09/07 10:21:20;;;;;;;;;;;;;;;23.81;52.64;97866.34;5006876;28;20022;-82
2022/09/07 10:24:13;;;;;;;;;;;;;;;23.75;52.63;97874.31;4998233;28;19932;-83
2022/09/07 10:27:54;;;;;;;;;;;;;;;23.86;52.59;97866.75;5005773;28;19921;-83
2022/09/07 10:30:45;;;;;;;;;;;;;;;24.00;51.94;97863.94;4999959;28;19922;-84
2022/09/07 10:33:37;;;;;;;;;;;;;;;23.97;53.03;97866.72;5009552;28;19926;-85
2022/09/07 10:36:28;;;;;;;;;;;;;;;23.89;51.77;97860.41;5031183;28;19937;-78
2022/09/07 10:39:17;;;;;;;;;;;;;;;23.84;51.87;97868.34;5013857;28;20020;-83
2022/09/07 10:42:09;;;;;;;;;;;;;;;23.73;51.71;97866.38;5000624;28;19922;-84
2022/09/07 10:45:25;;;;;;;;;;;;;;;23.73;51.93;97860.06;4995989;28;20040;-81
2022/09/07 10:48:15;;;;;;;;;;;;;;;23.66;52.42;97857.31;5004336;28;19922;-82
2022/09/07 10:51:03;;;;;;;;;;;;;;;23.81;52.16;97852.50;5001487;28;20020;-83
2022/09/07 10:54:02;;;;;;;;;;;;;;;24.06;51.99;97850.44;5001409;28;19987;-81
2022/09/07 11:00:30;;;;;;;;;;;;;;;24.39;50.33;97840.78;4994988;28;20269;-80
2022/09/07 11:03:24;;;;;;;;;;;;;;;24.44;51.13;97843.16;5007543;28;20270;-82
2022/09/07 11:06:15;;;;;;;;;;;;;;;24.47;50.43;97842.34;5004887;28;19970;-82
2022/09/07 11:09:15;;;;;;;;;;;;;;;24.44;50.49;97826.47;5003666;28;19928;-83
2022/09/07 11:12:08;;;;;;;;;;;;;;;24.42;50.41;97839.22;5004374;28;20069;-80
2022/09/07 11:14:59;;;;;;;;;;;;;;;24.56;50.56;97828.03;5006572;28;19976;-81
2022/09/07 11:17:50;;;;;;;;;;;;;;;24.55;50.56;97827.25;5006014;28;19929;-80
2022/09/07 11:20:42;;;;;;;;;;;;;;;24.58;50.32;97822.06;4998833;28;19984;-80
2022/09/07 11:23:33;;;;;;;;;;;;;;;24.62;50.36;97823.63;5006219;28;19928;-83
2022/09/07 11:26:28;;;;;;;;;;;;;;;24.72;50.87;97821.97;5006749;28;19932;-81
2022/09/07 11:32:58;;;;;;;;;;;;;;;24.85;49.86;97817.50;5004562;28;19925;-79
2022/09/07 11:35:50;;;;;;;;;;;;;;;24.84;49.76;97804.81;5001290;28;19937;-84
2022/09/07 11:38:39;;;;;;;;;;;;;;;24.80;49.55;97809.59;5017266;28;19929;-84
2022/09/07 11:41:28;;;;;;;;;;;;;;;24.84;49.81;97807.59;5003576;28;19929;-82
2022/09/07 11:44:17;;;;;;;;;;;;;;;24.90;49.37;97805.94;5008496;28;20449;-81
2022/09/07 11:47:08;;;;;;;;;;;;;;;25.01;49.39;97805.84;5006287;28;20019;-82
2022/09/07 11:53:14;;;;;;;;;;;;;;;25.13;48.76;97801.81;4996168;28;20291;-81
2022/09/07 11:56:03;;;;;;;;;;;;;;;25.18;48.66;97799.38;5001069;28;19928;-83
2022/09/07 11:59:13;;;;;;;;;;;;;;;25.26;48.46;97798.13;4996981;28;19932;-82
2022/09/07 12:02:05;;;;;;;;;;;;;;;25.25;48.96;97788.22;4991251;28;19926;-81
2022/09/07 12:05:01;;;;;;;;;;;;;;;25.25;48.81;97787.44;5000878;28;20443;-82
2022/09/07 12:07:51;;;;;;;;;;;;;;;25.37;48.62;97786.13;5007405;28;20214;-82
2022/09/07 12:10:45;;;;;;;;;;;;;;;25.39;48.65;97778.91;5008050;28;20370;-83
2022/09/07 12:14:02;;;;;;;;;;;;;;;25.35;48.77;97780.94;4998958;28;19932;-83
2022/09/07 12:16:56;;;;;;;;;;;;;;;25.34;48.39;97774.59;5006266;28;20012;-84
2022/09/07 12:19:45;;;;;;;;;;;;;;;25.24;48.90;97767.16;5009816;28;19926;-86
2022/09/07 12:22:59;;;;;;;;;;;;;;;25.30;48.41;97765.53;5003673;28;20367;-81
2022/09/07 12:25:52;;;;;;;;;;;;;;;25.31;48.78;97763.53;4998199;28;19921;-88
2022/09/07 12:28:59;;;;;;;;;;;;;;;25.28;48.42;97765.13;5002007;28;19952;-85
2022/09/07 12:31:48;;;;;;;;;;;;;;;25.30;48.43;97764.72;5014601;28;20064;-90
2022/09/07 12:34:49;;;;;;;;;;;;;;;25.24;48.51;97758.03;5009169;28;20372;-87
2022/09/07 12:38:04;;;;;;;;;;;;;;;25.27;48.14;97754.44;5023619;28;19909;-76
2022/09/07 12:41:00;;;;;;;;;;;;;;;25.30;47.13;97753.59;5013010;28;19921;-89
2022/09/07 12:43:52;;;;;;;;;;;;;;;25.28;47.61;97753.22;5020161;28;19922;-89
2022/09/07 12:46:51;;;;;;;;;;;;;;;25.25;47.96;97752.06;5005651;28;19925;-84
2022/09/07 12:50:05;;;;;;;;;;;;;;;25.25;48.04;97748.50;5005706;28;19926;-85
2022/09/07 12:53:10;;;;;;;;;;;;;;;25.24;47.76;97750.47;5000053;28;19926;-87
2022/09/07 12:56:14;;;;;;;;;;;;;;;25.16;47.23;97748.19;4997799;28;19922;-88
2022/09/07 12:59:08;;;;;;;;;;;;;;;24.98;47.33;97739.97;5022299;28;19921;-87
2022/09/07 13:02:41;;;;;;;;;;;;;;;24.98;48.68;97743.56;5014097;28;19925;-87
2022/09/07 13:05:56;;;;;;;;;;;;;;;25.17;47.90;97735.84;5014646;28;20650;-85
2022/09/07 13:09:08;;;;;;;;;;;;;;;25.37;47.47;97736.84;5012551;28;19921;-88
2022/09/07 13:12:03;;;;;;;;;;;;;;;25.42;46.89;97730.03;4990879;28;19961;-88
2022/09/07 13:18:14;;;;;;;;;;;;;;;25.55;46.64;97731.84;5018271;28;20063;-85
2022/09/07 13:21:20;;;;;;;;;;;;;;;25.67;45.70;97727.75;5008158;28;19937;-88
2022/09/07 13:24:32;;;;;;;;;;;;;;;25.50;46.79;97723.97;5007800;28;20395;-86
2022/09/07 13:27:51;;;;;;;;;;;;;;;25.47;46.75;97719.25;5009767;28;20394;-76
2022/09/07 13:30:45;;;;;;;;;;;;;;;25.57;46.88;97723.13;5022401;28;19996;-84
2022/09/07 13:33:46;;;;;;;;;;;;;;;25.52;46.42;97716.00;5003100;28;19925;-91
2022/09/07 13:36:38;;;;;;;;;;;;;;;25.53;46.62;97716.81;5009951;28;19926;-82
2022/09/07 13:39:26;;;;;;;;;;;;;;;25.53;46.70;97714.81;5019071;28;19951;-86
2022/09/07 13:42:18;;;;;;;;;;;;;;;25.23;46.79;97706.41;5001849;28;19929;-87
2022/09/07 13:45:21;;;;;;;;;;;;;;;25.15;47.84;97700.16;5003747;28;20064;-87
2022/09/07 13:48:12;;;;;;;;;;;;;;;25.17;47.39;97708.06;5006125;28;19951;-87
2022/09/07 13:51:02;;;;;;;;;;;;;;;25.34;47.33;97707.84;4998373;28;19925;-82
2022/09/07 13:53:56;;;;;;;;;;;;;;;25.29;47.14;97701.97;4998556;28;19925;-82
2022/09/07 13:56:45;;;;;;;;;;;;;;;25.26;47.26;97711.16;5011385;28;19924;-84
2022/09/07 14:03:14;;;;;;;;;;;;;;;25.38;46.84;97705.03;5017661;28;20378;-87
2022/09/07 14:06:15;;;;;;;;;;;;;;;25.44;46.97;97702.59;5015285;28;19932;-88
2022/09/07 14:09:05;;;;;;;;;;;;;;;25.52;46.45;97698.53;5009244;28;19921;-87
2022/09/07 14:11:54;;;;;;;;;;;;;;;25.58;46.53;97697.66;5009772;28;19921;-87
2022/09/07 14:14:42;;;;;;;;;;;;;;;25.63;45.36;97701.97;5018906;28;20038;-87
2022/09/07 14:17:56;;;;;;;;;;;;;;;25.76;45.51;97693.88;5004998;28;19948;-86
2022/09/07 14:20:49;;;;;;;;;;;;;;;25.88;45.35;97696.09;5009878;28;20564;-88
2022/09/07 14:23:38;;;;;;;;;;;;;;;25.94;45.24;97685.28;5005998;28;20576;-89
2022/09/07 14:26:29;;;;;;;;;;;;;;;25.95;44.99;97690.44;4999623;28;20311;-84
2022/09/07 14:29:23;;;;;;;;;;;;;;;26.03;44.64;97691.91;5008781;28;19928;-85
2022/09/07 14:32:13;;;;;;;;;;;;;;;25.95;45.15;97690.44;5005345;28;19999;-85
2022/09/07 14:38:17;;;;;;;;;;;;;;;26.01;44.48;97682.41;5024110;28;19932;-76
2022/09/07 14:41:27;;;;;;;;;;;;;;;26.09;43.98;97683.88;5014537;28;19921;-87
2022/09/07 14:44:28;;;;;;;;;;;;;;;26.14;43.74;97675.06;5016013;28;20056;-85
2022/09/07 14:47:22;;;;;;;;;;;;;;;26.21;43.81;97672.19;5006062;28;20061;-85
2022/09/07 14:50:16;;;;;;;;;;;;;;;26.30;43.60;97666.84;4998653;28;19926;-81
2022/09/07 14:53:05;;;;;;;;;;;;;;;26.39;43.88;97663.53;5001933;28;19941;-83
2022/09/07 14:56:18;;;;;;;;;;;;;;;26.43;43.47;97655.16;5008433;28;19928;-80
2022/09/07 14:59:21;;;;;;;;;;;;;;;26.45;44.51;97656.31;5006370;28;20425;-82
2022/09/07 15:02:59;;;;;;;;;;;;;;;26.41;43.57;97647.19;4996877;28;19948;-82
2022/09/07 15:05:47;;;;;;;;;;;;;;;26.41;43.81;97636.03;5003450;28;20553;-81
2022/09/07 15:08:37;;;;;;;;;;;;;;;26.35;43.95;97638.53;4998519;28;19922;-81
2022/09/07 15:11:27;;;;;;;;;;;;;;;26.30;43.66;97641.00;5004977;28;20303;-83
2022/09/07 15:14:24;;;;;;;;;;;;;;;26.19;42.26;97637.59;5004460;28;19922;-84
2022/09/07 15:17:21;;;;;;;;;;;;;;;26.13;42.17;97638.06;5001840;28;20288;-77
2022/09/07 15:20:38;;;;;;;;;;;;;;;26.10;42.93;97633.38;5005352;28;19948;-80
2022/09/07 15:23:26;;;;;;;;;;;;;;;26.05;43.29;97628.28;5004095;28;19921;-83
2022/09/07 15:26:15;;;;;;;;;;;;;;;26.12;41.79;97619.00;5004991;28;20011;-81
2022/09/07 15:29:24;;;;;;;;;;;;;;;26.24;42.53;97614.84;4994939;28;20580;-81
2022/09/07 15:32:16;;;;;;;;;;;;;;;26.29;42.89;97612.38;4999528;28;19922;-84
2022/09/07 15:38:18;;;;;;;;;;;;;;;26.37;42.27;97596.34;5029587;28;19921;-84
2022/09/07 15:41:27;;;;;;;;;;;;;;;26.33;42.90;97604.75;5018001;28;19921;-84
2022/09/07 15:44:16;;;;;;;;;;;;;;;26.31;42.70;97603.56;4998573;28;19973;-80
2022/09/07 15:47:10;;;;;;;;;;;;;;;26.29;43.30;97609.59;5003602;28;19942;-84
2022/09/07 15:50:44;;;;;;;;;;;;;;;26.22;43.22;97614.50;5000373;28;19925;-81
2022/09/07 15:53:33;;;;;;;;;;;;;;;26.24;43.66;97606.50;4996023;28;19926;-81